Time;durP1;ratioP1;P1;durP2;ratioP2;P2;SDS_P1;SDS_P2;PMS_P1;PMS_P2;Temp;Humidity;BMP_temperature;BMP_pressure;BME280_temperature;BME280_humidity;BME280_pressure;Samples;Min_cycle;Max_cycle;Signal;HPM_P1;HPM_P2
2022/03/19 00:02:23;;;;;;;12.00;3.55;;;4.70;99.90;;;;;;5081186;28;20375;-84
2022/03/19 00:04:49;;;;;;;12.13;2.75;;;4.80;99.90;;;;;;5081628;28;20040;-84
2022/03/19 00:07:15;;;;;;;12.68;2.97;;;4.70;99.90;;;;;;5080856;28;20048;-84
2022/03/19 00:09:42;;;;;;;12.90;2.90;;;4.70;99.90;;;;;;5080619;28;20052;-84
2022/03/19 00:12:12;;;;;;;15.35;3.50;;;4.70;99.90;;;;;;5064433;28;20052;-84
2022/03/19 00:14:38;;;;;;;12.95;3.47;;;4.60;99.90;;;;;;5064497;28;20055;-84
2022/03/19 00:17:03;;;;;;;17.33;3.28;;;4.90;99.90;;;;;;5085994;28;20039;-83
2022/03/19 00:19:30;;;;;;;13.52;3.10;;;4.50;99.90;;;;;;5073206;28;20099;-84
2022/03/19 00:21:55;;;;;;;14.70;3.08;;;4.50;99.90;;;;;;5081035;28;20522;-84
2022/03/19 00:24:21;;;;;;;10.73;3.17;;;4.50;99.90;;;;;;5080050;28;20052;-84
2022/03/19 00:26:47;;;;;;;10.02;2.80;;;4.40;99.90;;;;;;5079037;28;20047;-84
2022/03/19 00:29:12;;;;;;;11.63;3.10;;;4.40;99.90;;;;;;5078712;28;20043;-84
2022/03/19 00:31:38;;;;;;;14.35;3.15;;;4.40;99.90;;;;;;5078430;28;20044;-84
2022/03/19 00:34:04;;;;;;;11.85;3.13;;;4.30;99.90;;;;;;5097283;28;20122;-84
2022/03/19 00:36:29;;;;;;;12.45;3.10;;;4.30;99.90;;;;;;5098057;28;20046;-84
2022/03/19 00:38:55;;;;;;;12.13;2.80;;;4.20;99.90;;;;;;5080053;28;20061;-84
2022/03/19 00:41:21;;;;;;;15.93;3.50;;;4.20;99.90;;;;;;5063405;28;20127;-84
2022/03/19 00:43:47;;;;;;;20.15;3.22;;;4.20;99.90;;;;;;5079848;28;20134;-84
2022/03/19 00:46:15;;;;;;;12.55;3.00;;;4.20;99.90;;;;;;5080244;28;20075;-84
2022/03/19 00:48:41;;;;;;;15.43;3.83;;;4.20;99.90;;;;;;5080807;28;20044;-84
2022/03/19 00:51:07;;;;;;;13.07;2.78;;;4.20;99.90;;;;;;5080413;28;20056;-84
2022/03/19 00:53:32;;;;;;;14.10;3.13;;;4.20;99.90;;;;;;5079774;28;20471;-84
2022/03/19 00:55:58;;;;;;;13.55;3.15;;;4.10;99.90;;;;;;5098546;28;20047;-84
2022/03/19 00:58:24;;;;;;;12.63;2.92;;;4.10;99.90;;;;;;5098008;28;20043;-84
2022/03/19 01:00:49;;;;;;;13.93;3.20;;;4.10;99.90;;;;;;5080464;28;20105;-84
2022/03/19 01:03:15;;;;;;;15.82;3.05;;;4.00;99.90;;;;;;5079955;28;20042;-84
2022/03/19 01:05:42;;;;;;;11.38;3.13;;;4.10;99.90;;;;;;5098027;28;20482;-84
2022/03/19 01:08:08;;;;;;;13.43;2.90;;;4.00;99.90;;;;;;5062963;28;20072;-84
2022/03/19 01:10:35;;;;;;;10.00;2.65;;;4.20;99.90;;;;;;5079732;28;20048;-84
2022/03/19 01:13:03;;;;;;;11.38;2.58;;;3.90;99.90;;;;;;5080102;28;20048;-84
2022/03/19 01:15:29;;;;;;;13.35;2.90;;;3.90;99.90;;;;;;5079820;28;20100;-84
2022/03/19 01:17:55;;;;;;;13.18;2.95;;;3.90;99.90;;;;;;5062857;28;20040;-84
2022/03/19 01:20:21;;;;;;;12.55;3.90;;;4.00;99.90;;;;;;5079917;28;20036;-84
2022/03/19 01:22:48;;;;;;;11.50;3.17;;;3.90;99.90;;;;;;5079342;28;20058;-84
2022/03/19 01:25:16;;;;;;;11.23;2.70;;;3.90;99.90;;;;;;5063089;28;20505;-84
2022/03/19 01:27:43;;;;;;;14.00;2.88;;;3.90;99.90;;;;;;5062871;28;20040;-84
2022/03/19 01:30:11;;;;;;;14.05;3.15;;;4.00;99.90;;;;;;5078064;28;20048;-84
2022/03/19 01:32:38;;;;;;;10.25;2.75;;;3.90;99.90;;;;;;5061716;28;20051;-84
2022/03/19 01:35:04;;;;;;;13.10;3.05;;;3.90;99.90;;;;;;5078636;28;20107;-84
2022/03/19 01:37:30;;;;;;;13.27;3.20;;;3.90;99.90;;;;;;5062240;28;20452;-84
2022/03/19 01:39:56;;;;;;;12.88;3.38;;;4.50;99.90;;;;;;5078635;28;20040;-84
2022/03/19 01:42:22;;;;;;;15.98;3.10;;;3.90;99.90;;;;;;5079247;28;20406;-84
2022/03/19 01:44:48;;;;;;;11.77;2.85;;;3.90;99.90;;;;;;5079076;28;20044;-84
2022/03/19 01:47:14;;;;;;;11.45;3.40;;;3.90;99.90;;;;;;5097296;28;20043;-84
2022/03/19 01:49:39;;;;;;;13.63;3.42;;;3.90;99.90;;;;;;5079491;28;20436;-84
2022/03/19 01:52:05;;;;;;;9.77;3.05;;;3.90;99.90;;;;;;5062410;28;20070;-84
2022/03/19 01:54:40;;;;;;;11.00;3.03;;;3.90;99.90;;;;;;5079050;28;20048;-84
2022/03/19 01:57:07;;;;;;;13.93;3.23;;;3.90;99.90;;;;;;5078824;28;20044;-84
2022/03/19 01:59:36;;;;;;;12.55;3.40;;;3.90;99.90;;;;;;5085388;28;20075;-84
2022/03/19 02:02:07;;;;;;;18.58;3.38;;;3.80;99.90;;;;;;5086310;28;20066;-84
2022/03/19 02:04:37;;;;;;;11.88;3.20;;;3.80;99.90;;;;;;5080662;28;20048;-84
2022/03/19 02:07:03;;;;;;;14.95;2.97;;;3.80;99.90;;;;;;5079621;28;20055;-84
2022/03/19 02:09:29;;;;;;;11.43;3.17;;;3.80;99.90;;;;;;5079870;28;20133;-84
2022/03/19 02:11:55;;;;;;;11.25;2.80;;;3.70;99.90;;;;;;5078783;28;20056;-84
2022/03/19 02:14:21;;;;;;;12.43;3.13;;;3.70;99.90;;;;;;5079119;28;20055;-84
2022/03/19 02:16:47;;;;;;;10.10;3.03;;;3.70;99.90;;;;;;5078159;28;20051;-84
2022/03/19 02:19:13;;;;;;;12.65;3.08;;;3.80;99.90;;;;;;5097672;28;20042;-84
2022/03/19 02:21:45;;;;;;;14.80;3.65;;;3.70;99.90;;;;;;5078999;28;20087;-84
2022/03/19 02:26:55;;;;;;;15.75;3.30;;;3.70;99.90;;;;;;5078792;28;20056;-84
2022/03/19 02:29:22;;;;;;;13.98;3.08;;;3.70;99.90;;;;;;5078430;28;20753;-84
2022/03/19 02:31:50;;;;;;;11.15;3.42;;;3.70;99.90;;;;;;5077518;28;20083;-84
2022/03/19 02:34:16;;;;;;;12.52;3.42;;;3.60;99.90;;;;;;5078878;28;20040;-84
2022/03/19 02:36:42;;;;;;;13.05;2.70;;;3.60;99.90;;;;;;5062772;28;20044;-83
2022/03/19 02:39:24;;;;;;;11.90;3.00;;;3.60;99.90;;;;;;5062098;28;20047;-84
2022/03/19 02:41:51;;;;;;;13.90;3.28;;;3.60;99.90;;;;;;5078901;28;20046;-84
2022/03/19 02:44:19;;;;;;;14.93;3.38;;;3.50;99.90;;;;;;5078713;28;20483;-83
2022/03/19 02:46:56;;;;;;;16.27;3.63;;;3.50;99.90;;;;;;5064967;28;20048;-84
2022/03/19 02:49:23;;;;;;;13.45;3.17;;;3.50;99.90;;;;;;5082102;28;20040;-84
2022/03/19 02:51:50;;;;;;;13.32;3.15;;;3.50;99.90;;;;;;5081846;28;20052;-84
2022/03/19 02:54:19;;;;;;;18.85;3.47;;;3.50;99.90;;;;;;5081749;28;20031;-84
2022/03/19 02:56:46;;;;;;;15.82;3.53;;;3.50;99.90;;;;;;5081768;28;20482;-84
2022/03/19 02:59:17;;;;;;;17.27;3.63;;;3.50;99.90;;;;;;5069043;28;20040;-84
2022/03/19 03:01:45;;;;;;;11.18;3.17;;;3.50;99.90;;;;;;5092311;28;20044;-84
2022/03/19 03:04:11;;;;;;;12.52;3.55;;;3.40;99.90;;;;;;5090823;28;20044;-84
2022/03/19 03:06:38;;;;;;;15.48;3.40;;;3.40;99.90;;;;;;5082778;28;20040;-84
2022/03/19 03:09:04;;;;;;;12.45;3.65;;;3.40;99.90;;;;;;5064779;28;20072;-84
2022/03/19 03:11:31;;;;;;;14.52;3.47;;;3.40;99.90;;;;;;5081522;28;20589;-84
2022/03/19 03:13:57;;;;;;;13.38;3.50;;;3.40;99.90;;;;;;5081370;28;20044;-84
2022/03/19 03:16:24;;;;;;;16.73;3.47;;;3.40;99.90;;;;;;5081854;28;20491;-84
2022/03/19 03:18:50;;;;;;;11.00;3.47;;;3.40;99.90;;;;;;5081144;28;20056;-84
2022/03/19 03:21:16;;;;;;;18.38;3.40;;;3.40;99.90;;;;;;5064439;28;20548;-84
2022/03/19 03:23:41;;;;;;;14.13;3.20;;;3.40;99.90;;;;;;5080761;28;20043;-84
2022/03/19 03:26:07;;;;;;;12.02;3.13;;;3.40;99.90;;;;;;5063937;28;20048;-84
2022/03/19 03:28:33;;;;;;;14.93;3.50;;;3.30;99.90;;;;;;5080469;28;20364;-84
2022/03/19 03:30:58;;;;;;;11.85;3.10;;;3.30;99.90;;;;;;5081163;28;20040;-84
2022/03/19 03:33:24;;;;;;;11.85;3.63;;;3.30;99.90;;;;;;5099678;28;20089;-84
2022/03/19 03:35:50;;;;;;;13.70;2.85;;;3.30;99.90;;;;;;5081824;28;20048;-84
2022/03/19 03:38:15;;;;;;;14.93;3.90;;;3.30;99.90;;;;;;5080818;28;20131;-84
2022/03/19 03:40:41;;;;;;;10.73;3.47;;;3.30;99.90;;;;;;5080720;28;20079;-84
2022/03/19 03:43:08;;;;;;;15.10;3.22;;;3.30;99.90;;;;;;5080976;28;20111;-84
2022/03/19 03:45:34;;;;;;;12.18;3.50;;;3.30;99.90;;;;;;5080925;28;20123;-84
2022/03/19 03:48:00;;;;;;;14.02;4.20;;;3.90;99.90;;;;;;5080841;28;20127;-84
2022/03/19 03:50:26;;;;;;;14.18;3.33;;;3.40;99.90;;;;;;5099522;28;20082;-84
2022/03/19 03:52:52;;;;;;;11.38;3.15;;;3.40;99.90;;;;;;5080333;28;20040;-84
2022/03/19 03:55:18;;;;;;;11.48;3.30;;;3.30;99.90;;;;;;5064342;28;20036;-84
2022/03/19 03:57:43;;;;;;;14.07;3.72;;;3.30;99.90;;;;;;5078503;28;20071;-84
2022/03/19 04:00:10;;;;;;;11.25;3.40;;;3.30;99.90;;;;;;5096564;28;20474;-84
2022/03/19 04:02:36;;;;;;;12.55;3.60;;;3.40;99.90;;;;;;5095957;28;20417;-84
2022/03/19 04:05:03;;;;;;;20.08;3.40;;;3.40;99.90;;;;;;5077893;28;20044;-84
2022/03/19 04:07:29;;;;;;;15.35;4.43;;;3.40;99.90;;;;;;5095695;28;20040;-84
2022/03/19 04:09:55;;;;;;;15.23;4.10;;;3.40;99.90;;;;;;5095715;28;20039;-84
2022/03/19 04:12:22;;;;;;;15.40;3.50;;;3.40;99.90;;;;;;5077516;28;20487;-84
2022/03/19 04:14:52;;;;;;;16.45;3.65;;;3.40;99.90;;;;;;5060448;28;20047;-84
2022/03/19 04:17:18;;;;;;;17.58;4.30;;;3.40;99.90;;;;;;5077459;28;20048;-84
2022/03/19 04:19:44;;;;;;;13.05;3.83;;;3.40;99.90;;;;;;5077784;28;20048;-84
2022/03/19 04:22:10;;;;;;;12.55;4.05;;;3.40;99.90;;;;;;5061012;28;20459;-84
2022/03/19 04:24:36;;;;;;;15.18;4.13;;;3.30;99.90;;;;;;5061160;28;20135;-84
2022/03/19 04:27:03;;;;;;;12.93;3.83;;;3.30;99.90;;;;;;5077168;28;20487;-84
2022/03/19 04:29:28;;;;;;;13.52;4.18;;;3.30;99.90;;;;;;5060362;28;20083;-84
2022/03/19 04:31:54;;;;;;;11.98;3.95;;;3.30;99.90;;;;;;5095585;28;20099;-84
2022/03/19 04:34:20;;;;;;;11.38;3.88;;;3.30;99.90;;;;;;5076931;28;20082;-84
2022/03/19 04:36:45;;;;;;;16.23;4.13;;;3.30;99.90;;;;;;5077158;28;20123;-84
2022/03/19 04:39:12;;;;;;;14.25;3.70;;;3.30;99.90;;;;;;5095299;28;20086;-84
2022/03/19 04:41:38;;;;;;;12.40;3.83;;;3.40;99.90;;;;;;5077074;28;20083;-84
2022/03/19 04:44:08;;;;;;;15.68;3.92;;;3.30;99.90;;;;;;5095358;28;20082;-84
2022/03/19 04:46:34;;;;;;;14.02;3.90;;;3.30;99.90;;;;;;5077198;28;20047;-84
2022/03/19 04:49:00;;;;;;;11.20;4.20;;;3.30;99.90;;;;;;5076765;28;20044;-84
2022/03/19 04:51:30;;;;;;;17.75;4.57;;;3.30;99.90;;;;;;5076720;28;20047;-84
2022/03/19 04:53:56;;;;;;;16.20;4.30;;;3.30;99.90;;;;;;5076695;28;20043;-84
2022/03/19 04:56:27;;;;;;;13.25;4.40;;;3.20;99.90;;;;;;5060262;28;20058;-84
2022/03/19 04:58:55;;;;;;;14.00;3.88;;;3.20;99.90;;;;;;5076605;28;20054;-84
2022/03/19 05:01:23;;;;;;;11.73;4.05;;;3.20;99.90;;;;;;5095109;28;20501;-84
2022/03/19 05:03:49;;;;;;;11.10;3.92;;;3.20;99.90;;;;;;5095194;28;20072;-84
2022/03/19 05:06:15;;;;;;;12.63;4.03;;;3.20;99.90;;;;;;5095110;28;20075;-84
2022/03/19 05:08:41;;;;;;;11.70;4.25;;;3.20;99.90;;;;;;5075940;28;20102;-84
2022/03/19 05:11:12;;;;;;;11.35;4.05;;;3.20;99.90;;;;;;5076137;28;20055;-84
2022/03/19 05:13:39;;;;;;;16.35;4.32;;;3.20;99.90;;;;;;5094641;28;20048;-84
2022/03/19 05:16:04;;;;;;;13.15;4.45;;;3.20;99.90;;;;;;5076294;28;20055;-84
2022/03/19 05:18:30;;;;;;;16.50;4.07;;;3.90;99.90;;;;;;5076333;28;20036;-84
2022/03/19 05:20:56;;;;;;;14.88;4.70;;;3.30;99.90;;;;;;5076511;28;20474;-84
2022/03/19 05:23:23;;;;;;;12.88;4.13;;;3.30;99.90;;;;;;5076491;28;20509;-84
2022/03/19 05:25:49;;;;;;;13.98;4.28;;;3.20;99.90;;;;;;5076407;28;20048;-84
2022/03/19 05:28:15;;;;;;;12.07;4.60;;;3.30;99.90;;;;;;5059553;28;20059;-84
2022/03/19 05:30:41;;;;;;;12.25;4.40;;;3.30;99.90;;;;;;5094364;28;20043;-84
2022/03/19 05:33:07;;;;;;;16.80;4.82;;;3.20;99.90;;;;;;5076095;28;20036;-84
2022/03/19 05:35:32;;;;;;;13.93;5.03;;;3.30;99.90;;;;;;5075951;28;20040;-84
2022/03/19 05:38:01;;;;;;;14.48;5.15;;;3.20;99.90;;;;;;5084931;28;20047;-84
2022/03/19 05:40:28;;;;;;;15.25;5.00;;;3.20;99.90;;;;;;5086584;28;20051;-84
2022/03/19 05:42:54;;;;;;;16.50;5.43;;;3.20;99.90;;;;;;5080952;28;20051;-84
2022/03/19 05:45:21;;;;;;;14.07;4.60;;;3.20;99.90;;;;;;5088037;28;20078;-84
2022/03/19 05:47:47;;;;;;;10.30;4.60;;;3.20;99.90;;;;;;5088396;28;20059;-84
2022/03/19 05:50:14;;;;;;;12.85;4.78;;;3.20;99.90;;;;;;5084527;28;20048;-84
2022/03/19 05:52:40;;;;;;;12.95;5.25;;;3.20;99.90;;;;;;5078982;28;20044;-84
2022/03/19 05:55:07;;;;;;;17.17;4.90;;;3.20;99.90;;;;;;5078235;28;20051;-84
2022/03/19 05:57:33;;;;;;;13.43;4.43;;;3.20;99.90;;;;;;5062144;28;20146;-84
2022/03/19 05:59:59;;;;;;;12.40;4.68;;;3.20;99.90;;;;;;5078758;28;20502;-84
2022/03/19 06:02:24;;;;;;;12.73;5.15;;;3.20;99.90;;;;;;5062628;28;20032;-84
2022/03/19 06:04:51;;;;;;;12.55;4.60;;;3.20;99.90;;;;;;5061177;28;20052;-84
2022/03/19 06:07:17;;;;;;;13.75;4.03;;;3.30;99.90;;;;;;5077976;28;20040;-84
2022/03/19 06:09:42;;;;;;;13.32;5.07;;;3.30;99.90;;;;;;5077964;28;20077;-84
2022/03/19 06:12:08;;;;;;;13.95;4.43;;;3.40;99.90;;;;;;5099794;28;20060;-84
2022/03/19 06:14:34;;;;;;;15.07;4.50;;;3.40;99.90;;;;;;5081983;28;20036;-83
2022/03/19 06:17:00;;;;;;;13.27;4.50;;;3.40;99.90;;;;;;5081778;28;20044;-84
2022/03/19 06:19:25;;;;;;;12.25;4.57;;;3.40;99.90;;;;;;5081289;28;20044;-84
2022/03/19 06:21:51;;;;;;;11.25;4.38;;;3.40;99.90;;;;;;5082456;28;20044;-84
2022/03/19 06:24:17;;;;;;;17.20;4.68;;;3.40;99.90;;;;;;5082042;28;20056;-84
2022/03/19 06:26:43;;;;;;;15.68;4.38;;;3.40;99.90;;;;;;5082006;28;20036;-84
2022/03/19 06:29:09;;;;;;;9.82;4.32;;;3.50;99.90;;;;;;5081400;28;20040;-83
2022/03/19 06:31:34;;;;;;;14.75;4.50;;;3.40;99.90;;;;;;5064997;28;20052;-84
2022/03/19 06:34:00;;;;;;;14.05;4.47;;;3.40;99.90;;;;;;5081932;28;20032;-84
2022/03/19 06:39:12;;;;;;;14.15;4.78;;;3.50;99.90;;;;;;5079124;28;20152;-84
2022/03/19 06:41:37;;;;;;;14.35;4.55;;;3.50;99.90;;;;;;5080310;28;20040;-84
2022/03/19 06:44:03;;;;;;;12.07;4.40;;;3.60;99.90;;;;;;5097693;28;20044;-84
2022/03/19 06:46:29;;;;;;;11.23;4.15;;;3.60;99.90;;;;;;5062519;28;20044;-85
2022/03/19 06:48:54;;;;;;;14.70;4.35;;;3.70;99.90;;;;;;5079197;28;20410;-84
2022/03/19 06:51:20;;;;;;;11.95;3.90;;;3.80;99.90;;;;;;5079196;28;20043;-84
2022/03/19 06:53:47;;;;;;;11.15;3.95;;;3.80;99.90;;;;;;5079038;28;20145;-84
2022/03/19 06:56:13;;;;;;;10.90;3.70;;;3.90;99.90;;;;;;5079238;28;20055;-84
2022/03/19 06:58:40;;;;;;;13.05;3.75;;;4.00;99.90;;;;;;5078977;28;20043;-84
2022/03/19 07:01:05;;;;;;;11.40;3.83;;;4.00;99.90;;;;;;5079355;28;20043;-84
2022/03/19 07:03:31;;;;;;;13.52;3.92;;;4.10;99.90;;;;;;5097126;28;20040;-84
2022/03/19 07:05:57;;;;;;;15.73;4.15;;;4.20;99.90;;;;;;5079405;28;20067;-85
2022/03/19 07:08:23;;;;;;;12.80;3.95;;;4.30;99.90;;;;;;5079272;28;20040;-84
2022/03/19 07:10:49;;;;;;;13.63;3.80;;;4.40;99.90;;;;;;5079052;28;20047;-84
2022/03/19 07:13:15;;;;;;;16.58;3.90;;;4.40;99.90;;;;;;5078851;28;20044;-84
2022/03/19 07:15:41;;;;;;;11.65;3.80;;;4.60;99.90;;;;;;5078262;28;20052;-84
2022/03/19 07:18:07;;;;;;;12.95;3.95;;;4.60;99.90;;;;;;5061698;28;20040;-84
2022/03/19 07:20:33;;;;;;;13.52;4.45;;;4.70;99.90;;;;;;5078532;28;20047;-84
2022/03/19 07:23:00;;;;;;;17.08;3.80;;;4.80;99.90;;;;;;5097394;28;20105;-84
2022/03/19 07:25:30;;;;;;;16.00;3.63;;;5.00;99.90;;;;;;5062240;28;20055;-84
2022/03/19 07:27:58;;;;;;;12.43;3.90;;;5.10;99.90;;;;;;5078393;28;20498;-84
2022/03/19 07:30:24;;;;;;;10.45;3.45;;;5.20;99.90;;;;;;5062210;28;20052;-84
2022/03/19 07:32:50;;;;;;;13.93;3.63;;;5.30;99.90;;;;;;5061796;28;20043;-84
2022/03/19 07:35:16;;;;;;;12.93;3.97;;;5.40;99.90;;;;;;5061728;28;20065;-84
2022/03/19 07:37:42;;;;;;;17.95;4.28;;;5.50;99.90;;;;;;5061768;28;20035;-85
2022/03/19 07:40:10;;;;;;;12.18;3.75;;;5.60;99.90;;;;;;5078379;28;20050;-85
2022/03/19 07:42:36;;;;;;;12.73;4.00;;;5.70;99.90;;;;;;5078155;28;20097;-85
2022/03/19 07:45:03;;;;;;;9.85;3.90;;;5.70;99.90;;;;;;5078538;28;20364;-85
2022/03/19 07:47:30;;;;;;;12.48;3.53;;;5.70;99.90;;;;;;5078064;28;20108;-85
2022/03/19 07:49:56;;;;;;;16.80;4.25;;;5.80;99.90;;;;;;5078081;28;20131;-86
2022/03/19 07:52:22;;;;;;;13.88;3.85;;;5.90;99.90;;;;;;5078318;28;20122;-85
2022/03/19 07:54:47;;;;;;;12.75;3.78;;;6.00;99.90;;;;;;5078589;28;20501;-85
2022/03/19 07:57:13;;;;;;;11.68;3.47;;;6.10;99.90;;;;;;5078514;28;20067;-84
2022/03/19 07:59:39;;;;;;;14.55;3.80;;;6.20;99.90;;;;;;5078374;28;20082;-85
2022/03/19 08:02:05;;;;;;;15.30;4.30;;;6.30;99.90;;;;;;5060933;28;20047;-84
2022/03/19 08:04:31;;;;;;;12.05;4.30;;;6.40;99.90;;;;;;5096136;28;20047;-84
2022/03/19 08:06:57;;;;;;;11.88;3.90;;;6.90;99.90;;;;;;5077611;28;20494;-84
2022/03/19 08:09:23;;;;;;;15.65;4.03;;;6.60;99.90;;;;;;5077328;28;20039;-85
2022/03/19 08:11:52;;;;;;;14.13;4.10;;;6.70;99.90;;;;;;5077084;28;20491;-84
2022/03/19 08:14:19;;;;;;;13.40;4.03;;;6.80;99.90;;;;;;5077326;28;20051;-84
2022/03/19 08:16:49;;;;;;;11.32;3.88;;;6.90;99.90;;;;;;5077009;28;20040;-85
2022/03/19 08:19:15;;;;;;;11.63;4.05;;;6.90;99.90;;;;;;5077213;28;20517;-84
2022/03/19 08:21:44;;;;;;;12.55;3.90;;;7.10;99.90;;;;;;5061934;28;20368;-84
2022/03/19 08:24:10;;;;;;;13.25;3.92;;;7.50;99.90;;;;;;5078104;28;20051;-85
2022/03/19 08:26:37;;;;;;;11.57;3.90;;;7.20;99.90;;;;;;5076791;28;20038;-84
2022/03/19 08:29:07;;;;;;;7.70;3.30;;;7.80;99.90;;;;;;5076707;28;20040;-85
2022/03/19 08:31:33;;;;;;;13.38;4.25;;;7.30;99.90;;;;;;5077835;28;20048;-84
2022/03/19 08:33:59;;;;;;;13.40;3.83;;;7.40;99.90;;;;;;5060207;28;20054;-84
2022/03/19 08:36:25;;;;;;;12.43;3.70;;;7.40;99.90;;;;;;5076643;28;20131;-85
2022/03/19 08:41:36;;;;;;;11.75;4.32;;;7.50;99.90;;;;;;5088319;28;20044;-84
2022/03/19 08:44:02;;;;;;;14.88;3.85;;;7.60;99.90;;;;;;5087576;28;20086;-84
2022/03/19 08:46:28;;;;;;;11.63;3.33;;;7.70;99.90;;;;;;5088325;28;20097;-84
2022/03/19 08:48:54;;;;;;;10.73;3.50;;;7.80;99.90;;;;;;5070010;28;20048;-85
2022/03/19 08:54:05;;;;;;;11.95;3.42;;;8.00;99.90;;;;;;5076913;28;20396;-84
2022/03/19 08:56:31;;;;;;;11.55;3.60;;;8.10;99.90;;;;;;5076708;28;20058;-85
2022/03/19 08:58:57;;;;;;;13.75;3.25;;;8.40;99.90;;;;;;5076869;28;20044;-85
2022/03/19 09:01:23;;;;;;;12.75;3.53;;;8.40;99.90;;;;;;5076775;28;20479;-84
2022/03/19 09:03:49;;;;;;;12.02;3.53;;;8.80;99.90;;;;;;5076628;28;20044;-84
2022/03/19 09:06:15;;;;;;;9.70;3.22;;;8.50;99.90;;;;;;5059784;28;20130;-84
2022/03/19 09:08:44;;;;;;;16.00;3.92;;;8.50;99.90;;;;;;5059558;28;20050;-84
2022/03/19 09:11:11;;;;;;;12.40;3.05;;;8.60;99.90;;;;;;5075870;28;20047;-85
2022/03/19 09:13:36;;;;;;;12.75;3.10;;;8.70;99.90;;;;;;5077254;28;20494;-84
2022/03/19 09:16:06;;;;;;;9.82;3.13;;;8.70;99.90;;;;;;5081832;28;20131;-85
2022/03/19 09:18:33;;;;;;;9.40;3.00;;;8.80;99.90;;;;;;5078840;28;20071;-85
2022/03/19 09:20:58;;;;;;;14.23;3.08;;;8.90;99.90;;;;;;5075820;28;20498;-84
2022/03/19 09:23:24;;;;;;;9.68;3.15;;;8.90;99.90;;;;;;5075968;28;20044;-85
2022/03/19 09:25:50;;;;;;;9.25;2.90;;;9.50;99.90;;;;;;5075551;28;20039;-85
2022/03/19 09:28:16;;;;;;;8.75;2.95;;;9.10;99.90;;;;;;5059194;28;20119;-85
2022/03/19 09:30:42;;;;;;;13.35;3.22;;;9.40;99.90;;;;;;5075927;28;20551;-84
2022/03/19 09:33:08;;;;;;;9.00;2.80;;;9.10;99.90;;;;;;5059238;28;20493;-86
2022/03/19 09:35:35;;;;;;;11.23;3.50;;;9.30;99.90;;;;;;5075503;28;20048;-84
2022/03/19 09:38:01;;;;;;;12.30;2.90;;;9.30;99.90;;;;;;5075817;28;20051;-85
2022/03/19 09:40:27;;;;;;;11.05;2.80;;;9.50;99.90;;;;;;5059570;28;20052;-85
2022/03/19 09:42:54;;;;;;;9.52;2.38;;;9.60;99.90;;;;;;5076042;28;20087;-85
2022/03/19 09:45:22;;;;;;;8.65;2.47;;;9.90;99.90;;;;;;5075820;28;20046;-85
2022/03/19 09:47:49;;;;;;;9.15;2.45;;;9.90;99.90;;;;;;5059146;28;20051;-84
2022/03/19 09:50:15;;;;;;;8.57;2.50;;;9.80;99.90;;;;;;5076037;28;20054;-84
2022/03/19 09:52:44;;;;;;;8.50;2.40;;;10.70;99.90;;;;;;5059095;28;20051;-84
2022/03/19 09:55:15;;;;;;;10.60;2.50;;;10.40;99.90;;;;;;5082948;28;20478;-84
2022/03/19 09:57:41;;;;;;;7.78;2.38;;;10.50;99.90;;;;;;5066444;28;20122;-84
2022/03/19 10:00:07;;;;;;;8.15;2.90;;;10.10;99.90;;;;;;5083412;28;20052;-84
2022/03/19 10:02:33;;;;;;;9.35;2.45;;;10.10;99.90;;;;;;5082937;28;20050;-85
2022/03/19 10:08:35;;;;;;;9.20;2.42;;;10.30;99.90;;;;;;5082946;28;20036;-87
2022/03/19 10:10:33;;;;;;;7.25;2.05;;;10.60;99.90;;;;;;5082950;28;20172;-84
2022/03/19 10:12:59;;;;;;;7.75;2.10;;;10.70;99.90;;;;;;5082894;28;20095;-84
2022/03/19 10:15:27;;;;;;;7.70;2.40;;;10.70;99.90;;;;;;5084619;28;20162;-84
2022/03/19 10:18:00;;;;;;;5.43;1.70;;;10.90;99.90;;;;;;5067948;28;20032;-84
2022/03/19 10:20:27;;;;;;;6.65;1.85;;;10.90;99.90;;;;;;5083183;28;20062;-84
2022/03/19 10:22:56;;;;;;;5.95;1.60;;;10.90;99.90;;;;;;5082291;28;20040;-84
2022/03/19 10:25:22;;;;;;;5.97;2.15;;;11.00;99.90;;;;;;5082411;28;20196;-84
2022/03/19 10:27:48;;;;;;;9.48;2.25;;;11.20;99.90;;;;;;5082228;28;20040;-84
2022/03/19 10:30:21;;;;;;;6.53;1.83;;;11.30;99.90;;;;;;5067178;28;20487;-84
2022/03/19 10:32:52;;;;;;;7.80;1.80;;;11.90;99.90;;;;;;5087143;28;20097;-84
2022/03/19 10:35:28;;;;;;;6.05;1.60;;;11.60;99.90;;;;;;5070351;28;20043;-84
2022/03/19 10:37:54;;;;;;;6.80;1.60;;;11.70;99.60;;;;;;5082195;28;20048;-84
2022/03/19 10:40:21;;;;;;;7.70;1.98;;;11.60;99.90;;;;;;5082164;28;20425;-83
2022/03/19 10:42:50;;;;;;;8.43;1.95;;;12.10;99.90;;;;;;5081644;28;20048;-84
2022/03/19 10:45:22;;;;;;;5.97;1.60;;;12.00;99.90;;;;;;5065105;28;20105;-85
2022/03/19 10:47:48;;;;;;;4.15;1.60;;;11.90;97.10;;;;;;5081523;28;20048;-86
2022/03/19 10:50:20;;;;;;;5.88;2.17;;;12.60;96.80;;;;;;5081923;28;20093;-85
2022/03/19 10:52:48;;;;;;;8.05;1.63;;;12.00;94.10;;;;;;5065293;28;20044;-85
2022/03/19 10:55:14;;;;;;;6.07;1.80;;;12.10;95.00;;;;;;5064985;28;20036;-85
2022/03/19 10:57:39;;;;;;;7.63;1.77;;;12.60;95.60;;;;;;5064889;28;20131;-86
2022/03/19 11:00:06;;;;;;;5.82;1.70;;;12.30;94.20;;;;;;5081945;28;20440;-86
2022/03/19 11:02:32;;;;;;;7.47;1.92;;;12.40;90.60;;;;;;5081632;28;20047;-85
2022/03/19 11:04:58;;;;;;;7.45;1.80;;;12.40;88.70;;;;;;5081517;28;20092;-85
2022/03/19 11:07:27;;;;;;;7.15;1.85;;;12.50;91.20;;;;;;5077252;28;20044;-85
2022/03/19 11:09:56;;;;;;;4.18;1.50;;;12.60;89.00;;;;;;5078271;28;20062;-85
2022/03/19 11:12:26;;;;;;;4.38;1.38;;;12.60;89.40;;;;;;5077969;28;20052;-85
2022/03/19 11:14:53;;;;;;;24.65;9.90;;;12.80;89.90;;;;;;5077977;28;20056;-85
2022/03/19 11:17:25;;;;;;;11.85;3.78;;;13.00;92.20;;;;;;5061639;28;20390;-86
2022/03/19 11:20:05;;;;;;;13.18;2.20;;;13.10;91.70;;;;;;5064299;28;20043;-85
2022/03/19 11:23:10;;;;;;;14.02;5.05;;;13.10;87.00;;;;;;5061477;28;20130;-87
2022/03/19 11:25:45;;;;;;;5.72;2.15;;;13.20;83.30;;;;;;4962773;28;20058;-84
2022/03/19 11:28:13;;;;;;;8.43;2.85;;;13.60;88.00;;;;;;4978233;28;20153;-86
2022/03/19 11:30:41;;;;;;;5.40;1.60;;;13.20;89.90;;;;;;4978228;28;20077;-84
2022/03/19 11:33:09;;;;;;;9.30;2.33;;;13.20;87.00;;;;;;4978602;28;20124;-84
2022/03/19 11:35:40;;;;;;;7.53;1.80;;;13.30;82.40;;;;;;4994969;28;20417;-84
2022/03/19 11:38:16;;;;;;;13.55;4.65;;;13.30;83.90;;;;;;4978369;28;20129;-83
2022/03/19 11:40:47;;;;;;;4.65;1.50;;;13.40;82.80;;;;;;4995915;28;20043;-84
2022/03/19 11:43:18;;;;;;;21.52;5.07;;;13.40;75.90;;;;;;4995173;28;20054;-84
2022/03/19 11:46:03;;;;;;;18.55;3.65;;;13.50;83.90;;;;;;4994613;28;20562;-87
2022/03/19 11:48:37;;;;;;;8.80;2.83;;;13.50;76.40;;;;;;4977971;28;20046;-85
2022/03/19 11:51:18;;;;;;;4.60;1.45;;;13.70;77.50;;;;;;4977834;28;20089;-85
2022/03/19 11:54:12;;;;;;;11.25;3.20;;;13.50;73.00;;;;;;4978148;28;20484;-85
2022/03/19 11:56:41;;;;;;;7.82;1.80;;;13.60;76.40;;;;;;5047368;28;20563;-86
2022/03/19 11:59:31;;;;;;;7.18;1.60;;;13.80;79.20;;;;;;5077652;28;20454;-85
2022/03/19 12:02:03;;;;;;;17.10;4.97;;;13.70;71.00;;;;;;5061934;28;20483;-85
2022/03/19 12:04:42;;;;;;;4.70;1.40;;;13.80;74.80;;;;;;5060678;28;20044;-85
2022/03/19 12:07:08;;;;;;;6.00;1.70;;;13.80;68.10;;;;;;5077379;28;20391;-85
2022/03/19 12:09:39;;;;;;;6.32;2.10;;;14.00;73.50;;;;;;5077595;28;20036;-84
2022/03/19 12:12:12;;;;;;;6.22;1.83;;;14.40;78.00;;;;;;5060388;28;20056;-84
2022/03/19 12:14:39;;;;;;;4.75;1.55;;;14.40;71.40;;;;;;5094975;28;20052;-85
2022/03/19 12:17:19;;;;;;;18.83;6.13;;;14.60;74.60;;;;;;5077539;28;20101;-85
2022/03/19 12:19:51;;;;;;;23.02;6.78;;;14.50;73.40;;;;;;5076988;28;20178;-85
2022/03/19 12:22:40;;;;;;;5.43;1.50;;;14.40;74.00;;;;;;5083045;28;20073;-84
2022/03/19 12:25:13;;;;;;;5.00;1.92;;;14.50;70.30;;;;;;5089646;28;20403;-84
2022/03/19 12:27:40;;;;;;;5.93;1.60;;;14.70;73.80;;;;;;5088913;28;20131;-84
2022/03/19 12:30:07;;;;;;;18.08;6.53;;;14.80;75.40;;;;;;5086948;28;20044;-84
2022/03/19 12:32:54;;;;;;;27.00;7.93;;;14.90;75.50;;;;;;5082561;28;20039;-84
2022/03/19 12:35:25;;;;;;;23.00;7.72;;;14.80;72.30;;;;;;5082828;28;20044;-84
2022/03/19 12:37:56;;;;;;;7.60;1.75;;;14.70;73.80;;;;;;5082487;28;20047;-84
2022/03/19 12:40:25;;;;;;;9.63;2.50;;;14.70;70.00;;;;;;5081579;28;20101;-84
2022/03/19 12:42:58;;;;;;;10.57;3.40;;;14.80;70.60;;;;;;5077750;28;20382;-84
2022/03/19 12:45:41;;;;;;;27.55;10.13;;;14.70;72.10;;;;;;5076371;28;20055;-83
2022/03/19 12:48:09;;;;;;;48.53;14.60;;;15.10;74.30;;;;;;5076520;28;20089;-84
2022/03/19 12:50:35;;;;;;;33.40;9.80;;;15.10;76.50;;;;;;5076618;28;20088;-85
2022/03/19 12:53:00;;;;;;;6.93;2.10;;;15.10;75.90;;;;;;5076593;28;20448;-84
2022/03/19 12:55:26;;;;;;;4.28;1.45;;;15.20;75.60;;;;;;5080039;28;20118;-85
2022/03/19 12:58:01;;;;;;;4.25;1.60;;;15.50;74.30;;;;;;5103883;28;20032;-83
2022/03/19 13:00:27;;;;;;;4.85;1.50;;;15.60;66.10;;;;;;5070312;28;20040;-81
2022/03/19 13:02:54;;;;;;;4.03;1.30;;;15.50;67.40;;;;;;5060534;28;20040;-84